EZY123 EDDS-EDDN
Flight info
| Callsign | EZY123 |
|---|---|
| Flight time | 1h 1m |
| Altitude | 7000 |
| Route | DKB9B/25 DKB N869 LETKU LETKU1V |
| Aircraft | A20N/M-SDE2E3FGHIRWXY/LB1 |
Departure
| Time | 2026-05-07 16:18 |
|---|---|
| Airport | Stuttgart Airport (EDDS) |
Arrival
| Time | 2026-05-07 17:19 |
|---|---|
| Airport | Nuremberg Airport (EDDN) |
| Time | Latitude | Longitude | Altitude | Speed | Heading |
|---|---|---|---|---|---|
| 2026-05-07 15:38 | 48.68984 | 9.20419 | 1285 ft | 0 kts | 164° |
| 2026-05-07 16:11 | 48.68980 | 9.20420 | 1285 ft | 2 kts | 164° |
| 2026-05-07 16:11 | 48.68950 | 9.20433 | 1289 ft | 7 kts | 164° |
| 2026-05-07 16:11 | 48.68926 | 9.20497 | 1287 ft | 9 kts | 78° |
| 2026-05-07 16:11 | 48.68947 | 9.20605 | 1285 ft | 12 kts | 73° |
| 2026-05-07 16:12 | 48.68974 | 9.20748 | 1287 ft | 16 kts | 74° |
| 2026-05-07 16:12 | 48.69007 | 9.20920 | 1289 ft | 18 kts | 73° |
| 2026-05-07 16:12 | 48.69048 | 9.21119 | 1287 ft | 21 kts | 73° |
| 2026-05-07 16:12 | 48.69087 | 9.21342 | 1285 ft | 23 kts | 73° |
| 2026-05-07 16:13 | 48.69134 | 9.21581 | 1289 ft | 25 kts | 75° |
| 2026-05-07 16:13 | 48.69184 | 9.21843 | 1286 ft | 27 kts | 73° |
| 2026-05-07 16:13 | 48.69236 | 9.22123 | 1287 ft | 28 kts | 74° |
| 2026-05-07 16:13 | 48.69291 | 9.22416 | 1287 ft | 30 kts | 74° |
| 2026-05-07 16:14 | 48.69350 | 9.22721 | 1288 ft | 31 kts | 74° |
| 2026-05-07 16:14 | 48.69411 | 9.23036 | 1286 ft | 32 kts | 74° |
| 2026-05-07 16:14 | 48.69471 | 9.23361 | 1287 ft | 32 kts | 73° |
| 2026-05-07 16:14 | 48.69534 | 9.23693 | 1287 ft | 33 kts | 75° |
| 2026-05-07 16:15 | 48.69597 | 9.24027 | 1289 ft | 26 kts | 73° |
| 2026-05-07 16:15 | 48.69580 | 9.24252 | 1288 ft | 23 kts | 122° |
| 2026-05-07 16:15 | 48.69549 | 9.24294 | 1285 ft | 0 kts | 155° |
| 2026-05-07 16:15 | 48.69548 | 9.24294 | 1285 ft | 1 kts | 156° |
| 2026-05-07 16:16 | 48.69527 | 9.24305 | 1285 ft | 5 kts | 163° |
| 2026-05-07 16:16 | 48.69474 | 9.24325 | 1288 ft | 10 kts | 171° |
| 2026-05-07 16:16 | 48.69397 | 9.24291 | 1288 ft | 14 kts | 221° |
| 2026-05-07 16:16 | 48.69365 | 9.24187 | 1285 ft | 0 kts | 253° |
| 2026-05-07 16:17 | 48.69352 | 9.24118 | 1286 ft | 32 kts | 253° |
| 2026-05-07 16:17 | 48.69218 | 9.23406 | 1289 ft | 105 kts | 254° |
| 2026-05-07 16:17 | 48.68965 | 9.22079 | 1288 ft | 158 kts | 251° |
| 2026-05-07 16:17 | 48.68587 | 9.20434 | 1826 ft | 159 kts | 257° |
| 2026-05-07 16:18 | 48.68342 | 9.18909 | 2765 ft | 143 kts | 261° |
| 2026-05-07 16:18 | 48.68114 | 9.17418 | 3222 ft | 153 kts | 250° |
| 2026-05-07 16:18 | 48.67661 | 9.15868 | 3467 ft | 169 kts | 253° |
| 2026-05-07 16:18 | 48.67319 | 9.14104 | 3706 ft | 189 kts | 257° |
| 2026-05-07 16:19 | 48.66963 | 9.12068 | 4019 ft | 211 kts | 256° |
| 2026-05-07 16:19 | 48.66829 | 9.09775 | 4380 ft | 229 kts | 281° |
| 2026-05-07 16:19 | 48.67546 | 9.07570 | 4849 ft | 245 kts | 309° |
| 2026-05-07 16:19 | 48.68936 | 9.06035 | 4995 ft | 268 kts | 335° |
| 2026-05-07 16:20 | 48.70734 | 9.05377 | 5001 ft | 265 kts | 348° |
| 2026-05-07 16:20 | 48.72531 | 9.04796 | 4990 ft | 264 kts | 343° |
| 2026-05-07 16:20 | 48.74300 | 9.04054 | 4993 ft | 264 kts | 343° |
| 2026-05-07 16:20 | 48.76135 | 9.03955 | 4996 ft | 270 kts | 10° |
| 2026-05-07 16:21 | 48.77829 | 9.05171 | 4985 ft | 273 kts | 38° |
| 2026-05-07 16:21 | 48.79076 | 9.07367 | 4992 ft | 278 kts | 53° |
| 2026-05-07 16:21 | 48.80176 | 9.09783 | 4996 ft | 277 kts | 55° |
| 2026-05-07 16:21 | 48.81248 | 9.12212 | 4986 ft | 277 kts | 54° |
| 2026-05-07 16:22 | 48.82329 | 9.14630 | 4990 ft | 277 kts | 54° |
| 2026-05-07 16:22 | 48.83426 | 9.17035 | 4985 ft | 277 kts | 54° |
| 2026-05-07 16:22 | 48.84531 | 9.19431 | 4988 ft | 276 kts | 53° |
| 2026-05-07 16:22 | 48.85627 | 9.21793 | 4997 ft | 276 kts | 53° |
| 2026-05-07 16:23 | 48.86736 | 9.24183 | 4989 ft | 277 kts | 53° |
| 2026-05-07 16:23 | 48.87845 | 9.26572 | 5003 ft | 277 kts | 53° |
| 2026-05-07 16:23 | 48.88953 | 9.28964 | 4988 ft | 277 kts | 53° |
| 2026-05-07 16:23 | 48.90050 | 9.31334 | 4987 ft | 277 kts | 53° |
| 2026-05-07 16:24 | 48.91131 | 9.33765 | 4987 ft | 278 kts | 59° |
| 2026-05-07 16:24 | 48.91937 | 9.36433 | 4998 ft | 278 kts | 68° |
| 2026-05-07 16:24 | 48.92638 | 9.39181 | 4987 ft | 278 kts | 68° |
| 2026-05-07 16:24 | 48.93347 | 9.41921 | 4984 ft | 279 kts | 68° |
| 2026-05-07 16:25 | 48.94061 | 9.44666 | 4984 ft | 279 kts | 67° |
| 2026-05-07 16:25 | 48.94775 | 9.47413 | 4991 ft | 279 kts | 68° |
| 2026-05-07 16:25 | 48.95489 | 9.50156 | 4989 ft | 278 kts | 68° |
| 2026-05-07 16:25 | 48.96198 | 9.52890 | 5000 ft | 279 kts | 68° |
| 2026-05-07 16:26 | 48.96908 | 9.55632 | 4993 ft | 278 kts | 68° |
| 2026-05-07 16:26 | 48.97617 | 9.58380 | 4993 ft | 278 kts | 68° |
| 2026-05-07 16:26 | 48.98325 | 9.61121 | 4994 ft | 280 kts | 68° |
| 2026-05-07 16:26 | 48.98807 | 9.62987 | 4992 ft | 279 kts | 68° |
| 2026-05-07 16:27 | 48.99746 | 9.66633 | 4994 ft | 280 kts | 68° |
| 2026-05-07 16:27 | 49.00454 | 9.69383 | 4995 ft | 278 kts | 68° |
| 2026-05-07 16:27 | 49.01161 | 9.72136 | 5000 ft | 280 kts | 68° |
| 2026-05-07 16:27 | 49.01869 | 9.74894 | 4999 ft | 279 kts | 68° |
| 2026-05-07 16:28 | 49.02575 | 9.77644 | 5001 ft | 279 kts | 68° |
| 2026-05-07 16:28 | 49.03280 | 9.80398 | 5003 ft | 279 kts | 68° |
| 2026-05-07 16:28 | 49.03980 | 9.83139 | 5001 ft | 277 kts | 68° |
| 2026-05-07 16:28 | 49.04683 | 9.85894 | 5002 ft | 279 kts | 68° |
| 2026-05-07 16:29 | 49.05386 | 9.88653 | 5000 ft | 278 kts | 68° |
| 2026-05-07 16:29 | 49.06088 | 9.91411 | 5000 ft | 279 kts | 68° |
| 2026-05-07 16:29 | 49.06781 | 9.94131 | 4997 ft | 278 kts | 68° |
| 2026-05-07 16:29 | 49.07481 | 9.96886 | 4999 ft | 280 kts | 68° |
| 2026-05-07 16:30 | 49.08183 | 9.99658 | 5001 ft | 280 kts | 68° |
| 2026-05-07 16:30 | 49.08883 | 10.02422 | 4997 ft | 279 kts | 68° |
| 2026-05-07 16:30 | 49.09582 | 10.05181 | 5001 ft | 279 kts | 68° |
| 2026-05-07 16:30 | 49.10280 | 10.07945 | 5003 ft | 279 kts | 68° |
| 2026-05-07 16:31 | 49.10979 | 10.10715 | 5001 ft | 280 kts | 68° |
| 2026-05-07 16:31 | 49.11676 | 10.13479 | 5004 ft | 279 kts | 68° |
| 2026-05-07 16:31 | 49.12373 | 10.16246 | 5007 ft | 279 kts | 68° |
| 2026-05-07 16:31 | 49.13067 | 10.19006 | 5009 ft | 280 kts | 68° |
| 2026-05-07 16:32 | 49.13766 | 10.21772 | 5008 ft | 278 kts | 66° |
| 2026-05-07 16:32 | 49.14707 | 10.24343 | 5007 ft | 277 kts | 52° |
| 2026-05-07 16:32 | 49.15995 | 10.26513 | 5022 ft | 276 kts | 43° |
| 2026-05-07 16:32 | 49.17365 | 10.28597 | 5018 ft | 277 kts | 44° |
| 2026-05-07 16:33 | 49.18716 | 10.30679 | 5019 ft | 277 kts | 44° |
| 2026-05-07 16:33 | 49.20067 | 10.32772 | 5022 ft | 276 kts | 44° |
| 2026-05-07 16:33 | 49.21396 | 10.34837 | 5026 ft | 276 kts | 44° |
| 2026-05-07 16:33 | 49.22761 | 10.36963 | 5038 ft | 277 kts | 44° |
| 2026-05-07 16:34 | 49.24089 | 10.39030 | 5027 ft | 274 kts | 43° |
| 2026-05-07 16:34 | 49.25443 | 10.41109 | 5033 ft | 277 kts | 43° |
| 2026-05-07 16:34 | 49.26805 | 10.43183 | 5026 ft | 276 kts | 43° |
| 2026-05-07 16:34 | 49.28172 | 10.45262 | 5026 ft | 277 kts | 43° |
| 2026-05-07 16:35 | 49.29535 | 10.47340 | 5032 ft | 276 kts | 43° |
| 2026-05-07 16:35 | 49.30892 | 10.49413 | 5032 ft | 275 kts | 43° |
| 2026-05-07 16:35 | 49.32253 | 10.51495 | 5027 ft | 277 kts | 43° |
| 2026-05-07 16:35 | 49.33607 | 10.53572 | 5032 ft | 276 kts | 43° |
| 2026-05-07 16:36 | 49.34964 | 10.55656 | 5032 ft | 276 kts | 43° |
| 2026-05-07 16:36 | 49.36317 | 10.57745 | 5028 ft | 275 kts | 44° |
| 2026-05-07 16:36 | 49.37662 | 10.59833 | 5023 ft | 276 kts | 44° |
| 2026-05-07 16:36 | 49.39014 | 10.61936 | 5020 ft | 277 kts | 44° |
| 2026-05-07 16:37 | 49.40363 | 10.64036 | 5017 ft | 275 kts | 44° |
| 2026-05-07 16:37 | 49.41708 | 10.66132 | 5014 ft | 275 kts | 44° |
| 2026-05-07 16:37 | 49.42912 | 10.68412 | 5015 ft | 277 kts | 62° |
| 2026-05-07 16:37 | 49.43385 | 10.71258 | 5011 ft | 278 kts | 90° |
| 2026-05-07 16:38 | 49.43201 | 10.74213 | 5007 ft | 278 kts | 99° |
| 2026-05-07 16:38 | 49.42874 | 10.77127 | 5006 ft | 277 kts | 101° |
| 2026-05-07 16:38 | 49.42530 | 10.80057 | 5006 ft | 279 kts | 101° |
| 2026-05-07 16:38 | 49.42206 | 10.82987 | 5004 ft | 277 kts | 99° |
| 2026-05-07 16:39 | 49.41902 | 10.85910 | 5005 ft | 277 kts | 99° |
| 2026-05-07 16:39 | 49.41612 | 10.88837 | 5003 ft | 277 kts | 99° |
| 2026-05-07 16:39 | 49.41328 | 10.91761 | 5005 ft | 277 kts | 99° |
| 2026-05-07 16:39 | 49.41050 | 10.94643 | 5002 ft | 276 kts | 99° |
| 2026-05-07 16:40 | 49.40766 | 10.97569 | 5000 ft | 277 kts | 99° |
| 2026-05-07 16:40 | 49.40482 | 11.00494 | 5002 ft | 277 kts | 99° |
| 2026-05-07 16:40 | 49.40196 | 11.03420 | 5000 ft | 277 kts | 99° |
| 2026-05-07 16:40 | 49.39909 | 11.06344 | 4999 ft | 276 kts | 99° |
| 2026-05-07 16:41 | 49.39623 | 11.09261 | 4998 ft | 277 kts | 99° |
| 2026-05-07 16:41 | 49.39334 | 11.12187 | 4999 ft | 277 kts | 99° |
| 2026-05-07 16:41 | 49.39045 | 11.15108 | 4998 ft | 277 kts | 99° |
| 2026-05-07 16:41 | 49.38756 | 11.18020 | 5001 ft | 276 kts | 99° |
| 2026-05-07 16:42 | 49.38466 | 11.20934 | 4998 ft | 276 kts | 99° |
| 2026-05-07 16:42 | 49.38175 | 11.23851 | 4997 ft | 277 kts | 99° |
| 2026-05-07 16:42 | 49.37882 | 11.26776 | 5001 ft | 277 kts | 99° |
| 2026-05-07 16:42 | 49.37589 | 11.29690 | 4996 ft | 276 kts | 99° |
| 2026-05-07 16:43 | 49.37296 | 11.32601 | 4999 ft | 276 kts | 99° |
| 2026-05-07 16:43 | 49.37001 | 11.35515 | 4996 ft | 276 kts | 99° |
| 2026-05-07 16:43 | 49.36706 | 11.38431 | 5000 ft | 278 kts | 99° |
| 2026-05-07 16:43 | 49.36409 | 11.41353 | 4997 ft | 276 kts | 99° |
| 2026-05-07 16:44 | 49.36114 | 11.44260 | 4998 ft | 276 kts | 99° |
| 2026-05-07 16:44 | 49.35817 | 11.47168 | 4991 ft | 276 kts | 99° |
| 2026-05-07 16:44 | 49.35520 | 11.50076 | 4996 ft | 276 kts | 99° |
| 2026-05-07 16:44 | 49.35221 | 11.52982 | 4993 ft | 276 kts | 99° |
| 2026-05-07 16:45 | 49.35000 | 11.55898 | 4990 ft | 277 kts | 88° |
| 2026-05-07 16:45 | 49.35501 | 11.58728 | 4989 ft | 277 kts | 60° |
| 2026-05-07 16:45 | 49.36777 | 11.60896 | 4993 ft | 277 kts | 32° |
| 2026-05-07 16:45 | 49.38527 | 11.61960 | 4993 ft | 274 kts | 9° |
| 2026-05-07 16:46 | 49.40415 | 11.62356 | 4993 ft | 275 kts | 3° |
| 2026-05-07 16:46 | 49.42286 | 11.62004 | 4981 ft | 271 kts | 337° |
| 2026-05-07 16:46 | 49.43839 | 11.60464 | 4862 ft | 265 kts | 311° |
| 2026-05-07 16:46 | 49.44774 | 11.58067 | 4740 ft | 263 kts | 285° |
| 2026-05-07 16:47 | 49.45095 | 11.55375 | 4625 ft | 253 kts | 277° |
| 2026-05-07 16:47 | 49.45268 | 11.53590 | 4570 ft | 245 kts | 277° |
| 2026-05-07 16:47 | 49.45512 | 11.51102 | 4426 ft | 225 kts | 277° |
| 2026-05-07 16:47 | 49.45742 | 11.48828 | 4222 ft | 207 kts | 277° |
| 2026-05-07 16:48 | 49.45956 | 11.46746 | 4007 ft | 192 kts | 277° |
| 2026-05-07 16:48 | 49.46151 | 11.44866 | 4005 ft | 164 kts | 278° |
| 2026-05-07 16:48 | 49.46320 | 11.43225 | 3854 ft | 147 kts | 278° |
| 2026-05-07 16:48 | 49.46475 | 11.41723 | 3632 ft | 139 kts | 278° |
| 2026-05-07 16:49 | 49.46624 | 11.40253 | 3379 ft | 138 kts | 278° |
| 2026-05-07 16:49 | 49.46770 | 11.38791 | 3067 ft | 139 kts | 278° |
| 2026-05-07 16:49 | 49.46914 | 11.37350 | 2845 ft | 131 kts | 279° |
| 2026-05-07 16:49 | 49.47050 | 11.36015 | 2580 ft | 125 kts | 279° |
| 2026-05-07 16:50 | 49.47185 | 11.34701 | 2195 ft | 124 kts | 279° |
| 2026-05-07 16:50 | 49.47320 | 11.33385 | 1774 ft | 122 kts | 278° |
| 2026-05-07 16:50 | 49.47463 | 11.32133 | 1629 ft | 118 kts | 283° |
| 2026-05-07 16:50 | 49.47672 | 11.30720 | 1800 ft | 149 kts | 279° |
| 2026-05-07 16:51 | 49.47828 | 11.29107 | 1786 ft | 152 kts | 277° |
| 2026-05-07 16:51 | 49.47953 | 11.27556 | 1712 ft | 139 kts | 277° |
| 2026-05-07 16:51 | 49.48070 | 11.26161 | 1599 ft | 125 kts | 277° |
| 2026-05-07 16:51 | 49.48186 | 11.24869 | 1367 ft | 120 kts | 277° |
| 2026-05-07 16:52 | 49.48305 | 11.23691 | 1327 ft | 102 kts | 279° |
| 2026-05-07 16:52 | 49.48446 | 11.22452 | 1662 ft | 133 kts | 278° |
| 2026-05-07 16:52 | 49.48589 | 11.20907 | 2307 ft | 155 kts | 278° |
| 2026-05-07 16:52 | 49.48727 | 11.19197 | 2893 ft | 166 kts | 277° |
| 2026-05-07 16:53 | 49.48877 | 11.17393 | 3405 ft | 174 kts | 277° |
| 2026-05-07 16:53 | 49.49041 | 11.15523 | 3915 ft | 181 kts | 277° |
| 2026-05-07 16:53 | 49.49224 | 11.13534 | 4422 ft | 203 kts | 277° |
| 2026-05-07 16:53 | 49.49445 | 11.11155 | 4931 ft | 246 kts | 277° |
| 2026-05-07 16:54 | 49.49704 | 11.08340 | 5475 ft | 285 kts | 277° |
| 2026-05-07 16:54 | 49.50002 | 11.05142 | 6009 ft | 318 kts | 277° |
| 2026-05-07 16:54 | 49.50329 | 11.01648 | 6534 ft | 348 kts | 277° |
| 2026-05-07 16:54 | 49.50686 | 10.97827 | 7030 ft | 373 kts | 277° |
| 2026-05-07 16:55 | 49.51064 | 10.93820 | 7924 ft | 381 kts | 277° |
| 2026-05-07 16:55 | 49.51533 | 10.89785 | 9033 ft | 384 kts | 279° |
| 2026-05-07 16:55 | 49.51983 | 10.85924 | 9284 ft | 355 kts | 278° |
| 2026-05-07 16:55 | 49.52389 | 10.82272 | 9069 ft | 337 kts | 276° |
| 2026-05-07 16:56 | 49.52275 | 10.78794 | 8855 ft | 318 kts | 254° |
| 2026-05-07 16:56 | 49.51578 | 10.75656 | 8657 ft | 303 kts | 249° |
| 2026-05-07 16:56 | 49.50193 | 10.69793 | 8249 ft | 280 kts | 249° |
| 2026-05-07 16:57 | 49.49547 | 10.67018 | 8053 ft | 271 kts | 250° |
| 2026-05-07 16:57 | 49.48947 | 10.64329 | 7845 ft | 262 kts | 250° |
| 2026-05-07 16:57 | 49.48395 | 10.61694 | 7584 ft | 257 kts | 252° |
| 2026-05-07 16:57 | 49.47898 | 10.59079 | 7297 ft | 253 kts | 253° |
| 2026-05-07 16:58 | 49.47453 | 10.56476 | 6971 ft | 250 kts | 255° |
| 2026-05-07 16:58 | 49.47057 | 10.53878 | 6656 ft | 248 kts | 257° |
| 2026-05-07 16:58 | 49.46704 | 10.51292 | 6406 ft | 243 kts | 258° |
| 2026-05-07 16:58 | 49.46417 | 10.48863 | 6481 ft | 224 kts | 259° |
| 2026-05-07 16:59 | 49.46208 | 10.46551 | 6393 ft | 213 kts | 263° |
| 2026-05-07 16:59 | 49.46099 | 10.44334 | 6275 ft | 203 kts | 266° |
| 2026-05-07 16:59 | 49.46059 | 10.42203 | 6135 ft | 195 kts | 268° |
| 2026-05-07 16:59 | 49.46111 | 10.40139 | 5967 ft | 199 kts | 283° |
| 2026-05-07 17:00 | 49.46867 | 10.38222 | 5787 ft | 226 kts | 312° |
| 2026-05-07 17:00 | 49.48199 | 10.36657 | 5582 ft | 249 kts | 336° |
| 2026-05-07 17:00 | 49.49948 | 10.35694 | 4988 ft | 293 kts | 346° |
| 2026-05-07 17:00 | 49.52092 | 10.35738 | 4467 ft | 330 kts | 21° |
| 2026-05-07 17:01 | 49.53816 | 10.38326 | 3547 ft | 376 kts | 59° |
| 2026-05-07 17:01 | 49.55127 | 10.41937 | 4378 ft | 378 kts | 61° |
| 2026-05-07 17:01 | 49.56408 | 10.45539 | 5566 ft | 384 kts | 61° |
| 2026-05-07 17:01 | 49.57576 | 10.49395 | 6022 ft | 403 kts | 75° |
| 2026-05-07 17:02 | 49.57857 | 10.53467 | 7933 ft | 383 kts | 90° |
| 2026-05-07 17:02 | 49.57667 | 10.57705 | 8135 ft | 409 kts | 99° |
| 2026-05-07 17:02 | 49.57224 | 10.61932 | 9566 ft | 399 kts | 99° |
| 2026-05-07 17:02 | 49.56149 | 10.65913 | 10065 ft | 406 kts | 132° |
| 2026-05-07 17:03 | 49.53884 | 10.68279 | 11400 ft | 392 kts | 159° |
| 2026-05-07 17:03 | 49.51281 | 10.69319 | 12751 ft | 383 kts | 176° |
| 2026-05-07 17:03 | 49.48760 | 10.69111 | 14089 ft | 338 kts | 195° |
| 2026-05-07 17:03 | 49.46780 | 10.67833 | 15321 ft | 299 kts | 209° |
| 2026-05-07 17:04 | 49.44987 | 10.66369 | 16633 ft | 286 kts | 209° |
| 2026-05-07 17:04 | 49.43240 | 10.64944 | 17719 ft | 284 kts | 209° |
| 2026-05-07 17:04 | 49.41441 | 10.63611 | 18432 ft | 294 kts | 199° |
| 2026-05-07 17:04 | 49.39353 | 10.63253 | 18760 ft | 315 kts | 177° |
| 2026-05-07 17:05 | 49.37190 | 10.64202 | 18759 ft | 333 kts | 155° |
| 2026-05-07 17:05 | 49.35377 | 10.66373 | 18673 ft | 340 kts | 134° |
| 2026-05-07 17:05 | 49.34146 | 10.69493 | 18223 ft | 349 kts | 112° |
| 2026-05-07 17:05 | 49.33697 | 10.73204 | 17428 ft | 361 kts | 91° |
| 2026-05-07 17:06 | 49.34135 | 10.77029 | 16522 ft | 372 kts | 70° |
| 2026-05-07 17:06 | 49.35362 | 10.80567 | 15615 ft | 380 kts | 57° |
| 2026-05-07 17:06 | 49.36876 | 10.83885 | 14981 ft | 378 kts | 54° |
| 2026-05-07 17:06 | 49.38425 | 10.87125 | 14420 ft | 375 kts | 55° |
| 2026-05-07 17:07 | 49.39710 | 10.90575 | 13821 ft | 371 kts | 69° |
| 2026-05-07 17:07 | 49.40382 | 10.94358 | 13203 ft | 366 kts | 83° |
| 2026-05-07 17:07 | 49.40526 | 10.98222 | 12598 ft | 360 kts | 93° |
| 2026-05-07 17:07 | 49.40354 | 11.02031 | 12024 ft | 356 kts | 98° |
| 2026-05-07 17:08 | 49.40033 | 11.05777 | 11472 ft | 352 kts | 101° |
| 2026-05-07 17:08 | 49.39660 | 11.09467 | 10907 ft | 348 kts | 101° |
| 2026-05-07 17:08 | 49.39279 | 11.13120 | 10374 ft | 345 kts | 101° |
| 2026-05-07 17:08 | 49.38904 | 11.16743 | 9822 ft | 342 kts | 101° |
| 2026-05-07 17:09 | 49.38537 | 11.20335 | 9255 ft | 339 kts | 101° |
| 2026-05-07 17:09 | 49.38177 | 11.23889 | 8713 ft | 335 kts | 101° |
| 2026-05-07 17:09 | 49.37821 | 11.27411 | 8155 ft | 332 kts | 100° |
| 2026-05-07 17:09 | 49.37469 | 11.30891 | 7617 ft | 329 kts | 100° |
| 2026-05-07 17:10 | 49.37119 | 11.34346 | 7109 ft | 325 kts | 100° |
| 2026-05-07 17:10 | 49.36773 | 11.37757 | 6566 ft | 323 kts | 100° |
| 2026-05-07 17:10 | 49.36427 | 11.41146 | 6014 ft | 321 kts | 100° |
| 2026-05-07 17:10 | 49.36088 | 11.44472 | 5494 ft | 318 kts | 100° |
| 2026-05-07 17:11 | 49.35748 | 11.47798 | 5119 ft | 311 kts | 100° |
| 2026-05-07 17:11 | 49.35409 | 11.51101 | 5006 ft | 317 kts | 99° |
| 2026-05-07 17:11 | 49.35186 | 11.54459 | 4992 ft | 317 kts | 87° |
| 2026-05-07 17:11 | 49.35738 | 11.57723 | 4990 ft | 319 kts | 63° |
| 2026-05-07 17:12 | 49.37085 | 11.60383 | 4989 ft | 319 kts | 39° |
| 2026-05-07 17:12 | 49.39014 | 11.62006 | 4989 ft | 317 kts | 15° |
| 2026-05-07 17:12 | 49.41189 | 11.62486 | 4990 ft | 316 kts | 356° |
| 2026-05-07 17:12 | 49.43289 | 11.61671 | 4988 ft | 311 kts | 332° |
| 2026-05-07 17:13 | 49.44973 | 11.59625 | 4989 ft | 310 kts | 307° |
| 2026-05-07 17:13 | 49.45965 | 11.56743 | 4838 ft | 304 kts | 284° |
| 2026-05-07 17:13 | 49.46193 | 11.53534 | 4418 ft | 301 kts | 269° |
| 2026-05-07 17:13 | 49.46116 | 11.50343 | 4100 ft | 296 kts | 268° |
| 2026-05-07 17:14 | 49.46123 | 11.47215 | 4023 ft | 300 kts | 272° |
| 2026-05-07 17:14 | 49.46310 | 11.44033 | 4001 ft | 294 kts | 277° |
| 2026-05-07 17:14 | 49.46596 | 11.41038 | 3993 ft | 271 kts | 278° |
| 2026-05-07 17:14 | 49.46862 | 11.38340 | 3989 ft | 235 kts | 278° |
| 2026-05-07 17:15 | 49.47088 | 11.36059 | 3987 ft | 198 kts | 278° |
| 2026-05-07 17:15 | 49.47282 | 11.34097 | 4015 ft | 175 kts | 278° |
| 2026-05-07 17:15 | 49.47460 | 11.32277 | 4001 ft | 173 kts | 278° |
| 2026-05-07 17:15 | 49.47636 | 11.30494 | 3954 ft | 156 kts | 278° |
| 2026-05-07 17:16 | 49.47787 | 11.28955 | 3809 ft | 137 kts | 278° |
| 2026-05-07 17:16 | 49.47926 | 11.27550 | 3633 ft | 137 kts | 278° |
| 2026-05-07 17:16 | 49.48079 | 11.25990 | 3441 ft | 152 kts | 278° |
| 2026-05-07 17:16 | 49.48235 | 11.24407 | 3256 ft | 148 kts | 278° |
| 2026-05-07 17:17 | 49.48390 | 11.22839 | 3038 ft | 149 kts | 279° |
| 2026-05-07 17:17 | 49.48546 | 11.21255 | 2829 ft | 149 kts | 279° |
| 2026-05-07 17:17 | 49.48703 | 11.19661 | 2626 ft | 154 kts | 279° |
| 2026-05-07 17:17 | 49.48859 | 11.18071 | 2398 ft | 150 kts | 279° |
| 2026-05-07 17:18 | 49.49015 | 11.16489 | 2142 ft | 150 kts | 279° |
| 2026-05-07 17:18 | 49.49170 | 11.14911 | 1860 ft | 148 kts | 278° |
| 2026-05-07 17:18 | 49.49323 | 11.13357 | 1610 ft | 146 kts | 278° |
| 2026-05-07 17:18 | 49.49471 | 11.11857 | 1385 ft | 134 kts | 278° |
| 2026-05-07 17:19 | 49.49603 | 11.10516 | 1207 ft | 121 kts | 279° |
| 2026-05-07 17:19 | 49.49729 | 11.09300 | 1065 ft | 110 kts | 276° |
| 2026-05-07 17:19 | 49.49823 | 11.08292 | 1044 ft | 63 kts | 278° |
| 2026-05-07 17:19 | 49.49860 | 11.07910 | 1048 ft | 30 kts | 278° |
| 2026-05-07 17:20 | 49.49856 | 11.07667 | 1046 ft | 18 kts | 212° |
| 2026-05-07 17:20 | 49.49745 | 11.07715 | 1045 ft | 2 kts | 152° |
| 2026-05-07 17:21 | 49.49729 | 11.07728 | 1045 ft | 6 kts | 153° |
| 2026-05-07 17:22 | 49.49667 | 11.07770 | 1042 ft | 13 kts | 166° |
| 2026-05-07 17:22 | 49.49593 | 11.07711 | 1037 ft | 0 kts | 255° |
| 2026-05-07 17:22 | 49.49589 | 11.07695 | 1037 ft | 5 kts | 248° |
| 2026-05-07 17:23 | 49.49540 | 11.07666 | 1033 ft | 9 kts | 186° |
| 2026-05-07 17:23 | 49.49535 | 11.07665 | 1033 ft | 0 kts | 186° |
| 2026-05-07 17:23 | 49.49529 | 11.07663 | 1032 ft | 0 kts | 193° |